Welcome to our website!


1 week ago
ALB Aviation Training

What can be better than a late Summer Sunset flight?
We made a quick visit at our neighbor airport Oradea International Airport and after we also visited the amazing city of Oradea 🙂

1 month ago
IS-28M2/GR

If your adrenalin level is to low, you can visit our airfield 🙂

Fuel prices:

Avgas 100LL – 2,00€

Next events:

11th to 26th July 2020

Gliding Camp with international guests

Weather at Oradea Airport (LROD):

LROD 231930Z AUTO 19009KT 9999 FEW075/// BKN120/// 22/12 Q1010

TAF LROD 312030Z 3121/0203 CNL

Webcam at the clubhouse